sensor_id;sensor_type;location;lat;lon;timestamp;P1;durP1;ratioP1;P2;durP2;ratioP2
2840;SDS011;53423;49.224;12.074;2023-05-14T00:00:57;7.03;;;6.43;;
2840;SDS011;53423;49.224;12.074;2023-05-14T00:03:25;7.00;;;6.40;;
2840;SDS011;53423;49.224;12.074;2023-05-14T00:05:53;6.43;;;5.90;;
2840;SDS011;53423;49.224;12.074;2023-05-14T00:08:22;6.97;;;6.37;;
2840;SDS011;53423;49.224;12.074;2023-05-14T00:10:51;7.20;;;6.60;;
2840;SDS011;53423;49.224;12.074;2023-05-14T00:13:19;7.40;;;6.80;;
2840;SDS011;53423;49.224;12.074;2023-05-14T00:15:46;7.10;;;6.50;;
2840;SDS011;53423;49.224;12.074;2023-05-14T00:18:14;6.87;;;6.27;;
2840;SDS011;53423;49.224;12.074;2023-05-14T00:20:42;7.03;;;6.53;;
2840;SDS011;53423;49.224;12.074;2023-05-14T00:23:10;6.70;;;6.20;;
2840;SDS011;53423;49.224;12.074;2023-05-14T00:25:39;7.67;;;6.90;;
2840;SDS011;53423;49.224;12.074;2023-05-14T00:28:07;7.30;;;6.60;;
2840;SDS011;53423;49.224;12.074;2023-05-14T00:30:35;7.20;;;6.50;;
2840;SDS011;53423;49.224;12.074;2023-05-14T00:33:05;7.17;;;6.47;;
2840;SDS011;53423;49.224;12.074;2023-05-14T00:35:33;7.30;;;6.70;;
2840;SDS011;53423;49.224;12.074;2023-05-14T00:38:01;7.40;;;6.80;;
2840;SDS011;53423;49.224;12.074;2023-05-14T00:40:30;7.27;;;6.67;;
2840;SDS011;53423;49.224;12.074;2023-05-14T00:42:59;7.87;;;7.17;;
2840;SDS011;53423;49.224;12.074;2023-05-14T00:45:27;7.37;;;6.77;;
2840;SDS011;53423;49.224;12.074;2023-05-14T00:47:55;7.33;;;6.73;;
2840;SDS011;53423;49.224;12.074;2023-05-14T00:50:23;8.13;;;7.27;;
2840;SDS011;53423;49.224;12.074;2023-05-14T00:52:52;8.03;;;7.37;;
2840;SDS011;53423;49.224;12.074;2023-05-14T00:55:20;7.40;;;6.80;;
2840;SDS011;53423;49.224;12.074;2023-05-14T00:57:49;8.17;;;7.47;;
2840;SDS011;53423;49.224;12.074;2023-05-14T01:00:19;7.77;;;7.10;;
2840;SDS011;53423;49.224;12.074;2023-05-14T01:02:47;7.67;;;7.07;;
2840;SDS011;53423;49.224;12.074;2023-05-14T01:05:15;7.60;;;7.00;;
2840;SDS011;53423;49.224;12.074;2023-05-14T01:07:45;8.43;;;7.73;;
2840;SDS011;53423;49.224;12.074;2023-05-14T01:10:24;7.90;;;7.20;;
2840;SDS011;53423;49.224;12.074;2023-05-14T01:13:06;7.80;;;7.17;;
2840;SDS011;53423;49.224;12.074;2023-05-14T01:15:45;7.33;;;6.73;;
2840;SDS011;53423;49.224;12.074;2023-05-14T01:18:16;8.43;;;7.20;;
2840;SDS011;53423;49.224;12.074;2023-05-14T01:20:45;7.67;;;7.07;;
2840;SDS011;53423;49.224;12.074;2023-05-14T01:23:18;8.23;;;7.43;;
2840;SDS011;53423;49.224;12.074;2023-05-14T01:25:46;8.87;;;7.97;;
2840;SDS011;53423;49.224;12.074;2023-05-14T01:28:15;8.10;;;7.40;;
2840;SDS011;53423;49.224;12.074;2023-05-14T01:30:46;8.30;;;7.50;;
2840;SDS011;53423;49.224;12.074;2023-05-14T01:33:18;8.40;;;7.60;;
2840;SDS011;53423;49.224;12.074;2023-05-14T01:35:48;8.50;;;7.70;;
2840;SDS011;53423;49.224;12.074;2023-05-14T01:38:20;8.00;;;7.30;;
2840;SDS011;53423;49.224;12.074;2023-05-14T01:40:49;7.60;;;6.90;;
2840;SDS011;53423;49.224;12.074;2023-05-14T01:43:17;7.87;;;7.27;;
2840;SDS011;53423;49.224;12.074;2023-05-14T01:45:45;8.30;;;7.50;;
2840;SDS011;53423;49.224;12.074;2023-05-14T01:48:13;8.57;;;7.87;;
2840;SDS011;53423;49.224;12.074;2023-05-14T01:50:41;7.53;;;6.93;;
2840;SDS011;53423;49.224;12.074;2023-05-14T01:53:09;7.73;;;7.13;;
2840;SDS011;53423;49.224;12.074;2023-05-14T01:55:38;7.83;;;7.13;;
2840;SDS011;53423;49.224;12.074;2023-05-14T01:58:06;8.00;;;7.30;;
2840;SDS011;53423;49.224;12.074;2023-05-14T02:00:34;8.43;;;7.63;;
2840;SDS011;53423;49.224;12.074;2023-05-14T02:03:03;7.90;;;7.27;;
2840;SDS011;53423;49.224;12.074;2023-05-14T02:05:31;9.03;;;8.23;;
2840;SDS011;53423;49.224;12.074;2023-05-14T02:07:59;8.50;;;7.80;;
2840;SDS011;53423;49.224;12.074;2023-05-14T02:10:27;8.73;;;8.00;;
2840;SDS011;53423;49.224;12.074;2023-05-14T02:12:56;8.70;;;7.90;;
2840;SDS011;53423;49.224;12.074;2023-05-14T02:15:24;8.30;;;7.60;;
2840;SDS011;53423;49.224;12.074;2023-05-14T02:17:52;7.33;;;6.63;;
2840;SDS011;53423;49.224;12.074;2023-05-14T02:20:20;8.80;;;8.00;;
2840;SDS011;53423;49.224;12.074;2023-05-14T02:22:48;8.70;;;8.00;;
2840;SDS011;53423;49.224;12.074;2023-05-14T02:25:16;8.33;;;7.63;;
2840;SDS011;53423;49.224;12.074;2023-05-14T02:27:45;8.80;;;8.00;;
2840;SDS011;53423;49.224;12.074;2023-05-14T02:30:14;8.50;;;7.80;;
2840;SDS011;53423;49.224;12.074;2023-05-14T02:32:42;9.07;;;8.27;;
2840;SDS011;53423;49.224;12.074;2023-05-14T02:35:11;8.63;;;7.90;;
2840;SDS011;53423;49.224;12.074;2023-05-14T02:37:39;8.53;;;7.83;;
2840;SDS011;53423;49.224;12.074;2023-05-14T02:40:07;8.67;;;7.87;;
2840;SDS011;53423;49.224;12.074;2023-05-14T02:42:35;8.60;;;7.90;;
2840;SDS011;53423;49.224;12.074;2023-05-14T02:45:04;8.27;;;7.47;;
2840;SDS011;53423;49.224;12.074;2023-05-14T02:47:34;8.87;;;8.07;;
2840;SDS011;53423;49.224;12.074;2023-05-14T02:50:04;9.50;;;8.63;;
2840;SDS011;53423;49.224;12.074;2023-05-14T02:52:32;8.70;;;8.00;;
2840;SDS011;53423;49.224;12.074;2023-05-14T02:55:00;8.53;;;7.80;;
2840;SDS011;53423;49.224;12.074;2023-05-14T02:57:28;8.63;;;7.90;;
2840;SDS011;53423;49.224;12.074;2023-05-14T02:59:56;8.50;;;7.80;;
2840;SDS011;53423;49.224;12.074;2023-05-14T03:02:25;8.70;;;7.90;;
2840;SDS011;53423;49.224;12.074;2023-05-14T03:04:55;8.53;;;7.83;;
2840;SDS011;53423;49.224;12.074;2023-05-14T03:07:22;9.50;;;8.60;;
2840;SDS011;53423;49.224;12.074;2023-05-14T03:09:50;8.43;;;7.73;;
2840;SDS011;53423;49.224;12.074;2023-05-14T03:12:18;9.03;;;8.33;;
2840;SDS011;53423;49.224;12.074;2023-05-14T03:14:46;9.30;;;8.50;;
2840;SDS011;53423;49.224;12.074;2023-05-14T03:17:14;9.67;;;8.83;;
2840;SDS011;53423;49.224;12.074;2023-05-14T03:19:42;9.70;;;8.90;;
2840;SDS011;53423;49.224;12.074;2023-05-14T03:22:11;9.47;;;8.60;;
2840;SDS011;53423;49.224;12.074;2023-05-14T03:24:39;9.57;;;8.67;;
2840;SDS011;53423;49.224;12.074;2023-05-14T03:27:07;9.27;;;8.47;;
2840;SDS011;53423;49.224;12.074;2023-05-14T03:29:35;8.90;;;8.17;;
2840;SDS011;53423;49.224;12.074;2023-05-14T03:32:03;8.63;;;7.93;;
2840;SDS011;53423;49.224;12.074;2023-05-14T03:34:32;8.87;;;8.17;;
2840;SDS011;53423;49.224;12.074;2023-05-14T03:37:00;9.00;;;8.10;;
2840;SDS011;53423;49.224;12.074;2023-05-14T03:39:29;8.83;;;8.07;;
2840;SDS011;53423;49.224;12.074;2023-05-14T03:41:57;8.43;;;7.73;;
2840;SDS011;53423;49.224;12.074;2023-05-14T03:44:25;9.23;;;8.33;;
2840;SDS011;53423;49.224;12.074;2023-05-14T03:46:53;8.70;;;7.83;;
2840;SDS011;53423;49.224;12.074;2023-05-14T03:49:21;9.70;;;8.80;;
2840;SDS011;53423;49.224;12.074;2023-05-14T03:51:48;9.17;;;8.37;;
2840;SDS011;53423;49.224;12.074;2023-05-14T03:54:16;9.50;;;8.70;;
2840;SDS011;53423;49.224;12.074;2023-05-14T03:56:46;9.83;;;8.93;;
2840;SDS011;53423;49.224;12.074;2023-05-14T03:59:13;8.83;;;8.03;;
2840;SDS011;53423;49.224;12.074;2023-05-14T04:01:41;8.90;;;8.10;;
2840;SDS011;53423;49.224;12.074;2023-05-14T04:04:09;8.83;;;8.13;;
2840;SDS011;53423;49.224;12.074;2023-05-14T04:06:37;9.77;;;8.83;;
2840;SDS011;53423;49.224;12.074;2023-05-14T04:09:05;9.63;;;8.70;;
2840;SDS011;53423;49.224;12.074;2023-05-14T04:11:33;9.03;;;8.30;;
2840;SDS011;53423;49.224;12.074;2023-05-14T04:14:02;10.20;;;9.27;;
2840;SDS011;53423;49.224;12.074;2023-05-14T04:16:30;9.77;;;8.60;;
2840;SDS011;53423;49.224;12.074;2023-05-14T04:18:59;9.80;;;8.90;;
2840;SDS011;53423;49.224;12.074;2023-05-14T04:21:29;9.50;;;8.70;;
2840;SDS011;53423;49.224;12.074;2023-05-14T04:23:57;9.30;;;8.50;;
2840;SDS011;53423;49.224;12.074;2023-05-14T04:26:25;9.43;;;8.70;;
2840;SDS011;53423;49.224;12.074;2023-05-14T04:28:53;9.30;;;8.50;;
2840;SDS011;53423;49.224;12.074;2023-05-14T04:31:22;8.77;;;8.07;;
2840;SDS011;53423;49.224;12.074;2023-05-14T04:33:50;9.30;;;8.40;;
2840;SDS011;53423;49.224;12.074;2023-05-14T04:36:18;9.47;;;8.57;;
2840;SDS011;53423;49.224;12.074;2023-05-14T04:38:46;9.00;;;8.20;;
2840;SDS011;53423;49.224;12.074;2023-05-14T04:41:14;8.43;;;7.83;;
2840;SDS011;53423;49.224;12.074;2023-05-14T04:43:42;9.33;;;8.33;;
2840;SDS011;53423;49.224;12.074;2023-05-14T04:46:10;9.07;;;8.27;;
2840;SDS011;53423;49.224;12.074;2023-05-14T04:48:40;9.00;;;8.20;;
2840;SDS011;53423;49.224;12.074;2023-05-14T04:51:08;9.07;;;8.27;;
2840;SDS011;53423;49.224;12.074;2023-05-14T04:53:36;8.90;;;8.10;;
2840;SDS011;53423;49.224;12.074;2023-05-14T04:56:04;9.00;;;8.20;;
2840;SDS011;53423;49.224;12.074;2023-05-14T04:58:32;8.57;;;7.77;;
2840;SDS011;53423;49.224;12.074;2023-05-14T05:01:01;7.97;;;7.30;;
2840;SDS011;53423;49.224;12.074;2023-05-14T05:03:30;8.33;;;7.53;;
2840;SDS011;53423;49.224;12.074;2023-05-14T05:05:59;8.40;;;7.60;;
2840;SDS011;53423;49.224;12.074;2023-05-14T05:08:27;8.63;;;7.83;;
2840;SDS011;53423;49.224;12.074;2023-05-14T05:10:55;7.87;;;7.17;;
2840;SDS011;53423;49.224;12.074;2023-05-14T05:13:23;10.37;;;8.53;;
2840;SDS011;53423;49.224;12.074;2023-05-14T05:15:51;8.33;;;7.63;;
2840;SDS011;53423;49.224;12.074;2023-05-14T05:18:19;10.20;;;7.13;;
2840;SDS011;53423;49.224;12.074;2023-05-14T05:20:47;8.00;;;7.20;;
2840;SDS011;53423;49.224;12.074;2023-05-14T05:23:16;7.70;;;7.10;;
2840;SDS011;53423;49.224;12.074;2023-05-14T05:25:44;7.63;;;7.03;;
2840;SDS011;53423;49.224;12.074;2023-05-14T05:28:12;7.73;;;7.03;;
2840;SDS011;53423;49.224;12.074;2023-05-14T05:30:40;7.67;;;6.97;;
2840;SDS011;53423;49.224;12.074;2023-05-14T05:33:10;6.93;;;6.33;;
2840;SDS011;53423;49.224;12.074;2023-05-14T05:35:38;6.73;;;6.20;;
2840;SDS011;53423;49.224;12.074;2023-05-14T05:38:07;6.80;;;6.20;;
2840;SDS011;53423;49.224;12.074;2023-05-14T05:40:36;7.00;;;6.30;;
2840;SDS011;53423;49.224;12.074;2023-05-14T05:43:04;7.40;;;6.80;;
2840;SDS011;53423;49.224;12.074;2023-05-14T05:45:32;7.03;;;6.43;;
2840;SDS011;53423;49.224;12.074;2023-05-14T05:48:00;7.73;;;7.00;;
2840;SDS011;53423;49.224;12.074;2023-05-14T05:50:28;7.20;;;6.60;;
2840;SDS011;53423;49.224;12.074;2023-05-14T05:52:57;8.20;;;7.50;;
2840;SDS011;53423;49.224;12.074;2023-05-14T05:55:25;9.93;;;9.03;;
2840;SDS011;53423;49.224;12.074;2023-05-14T05:57:55;7.43;;;6.83;;
2840;SDS011;53423;49.224;12.074;2023-05-14T06:00:22;7.20;;;6.60;;
2840;SDS011;53423;49.224;12.074;2023-05-14T06:02:51;7.17;;;6.53;;
2840;SDS011;53423;49.224;12.074;2023-05-14T06:05:19;6.93;;;6.33;;
2840;SDS011;53423;49.224;12.074;2023-05-14T06:07:47;6.93;;;6.43;;
2840;SDS011;53423;49.224;12.074;2023-05-14T06:10:15;7.40;;;6.73;;
2840;SDS011;53423;49.224;12.074;2023-05-14T06:12:43;6.67;;;6.07;;
2840;SDS011;53423;49.224;12.074;2023-05-14T06:15:12;8.10;;;6.20;;
2840;SDS011;53423;49.224;12.074;2023-05-14T06:17:40;6.93;;;6.37;;
2840;SDS011;53423;49.224;12.074;2023-05-14T06:20:08;6.47;;;5.90;;
2840;SDS011;53423;49.224;12.074;2023-05-14T06:22:37;5.90;;;5.40;;
2840;SDS011;53423;49.224;12.074;2023-05-14T06:25:05;5.50;;;5.10;;
2840;SDS011;53423;49.224;12.074;2023-05-14T06:27:34;5.87;;;5.37;;
2840;SDS011;53423;49.224;12.074;2023-05-14T06:30:02;5.83;;;5.33;;
2840;SDS011;53423;49.224;12.074;2023-05-14T06:32:31;6.13;;;5.60;;
2840;SDS011;53423;49.224;12.074;2023-05-14T06:34:59;5.20;;;4.80;;
2840;SDS011;53423;49.224;12.074;2023-05-14T06:37:27;5.13;;;4.70;;
2840;SDS011;53423;49.224;12.074;2023-05-14T06:39:55;5.63;;;5.13;;
2840;SDS011;53423;49.224;12.074;2023-05-14T06:42:23;5.13;;;4.72;;
2840;SDS011;53423;49.224;12.074;2023-05-14T06:44:51;5.07;;;4.68;;
2840;SDS011;53423;49.224;12.074;2023-05-14T06:47:19;4.80;;;4.40;;
2840;SDS011;53423;49.224;12.074;2023-05-14T06:49:49;5.18;;;4.78;;
2840;SDS011;53423;49.224;12.074;2023-05-14T06:52:17;4.85;;;4.45;;
2840;SDS011;53423;49.224;12.074;2023-05-14T06:54:44;4.97;;;4.57;;
2840;SDS011;53423;49.224;12.074;2023-05-14T06:57:12;4.50;;;4.20;;
2840;SDS011;53423;49.224;12.074;2023-05-14T06:59:40;4.60;;;4.30;;
2840;SDS011;53423;49.224;12.074;2023-05-14T07:02:08;4.68;;;4.28;;
2840;SDS011;53423;49.224;12.074;2023-05-14T07:04:36;6.70;;;4.05;;
2840;SDS011;53423;49.224;12.074;2023-05-14T07:07:06;4.85;;;4.40;;
2840;SDS011;53423;49.224;12.074;2023-05-14T07:09:35;4.53;;;4.13;;
2840;SDS011;53423;49.224;12.074;2023-05-14T07:12:04;4.55;;;4.20;;
2840;SDS011;53423;49.224;12.074;2023-05-14T07:14:32;4.57;;;4.28;;
2840;SDS011;53423;49.224;12.074;2023-05-14T07:17:00;4.85;;;4.45;;
2840;SDS011;53423;49.224;12.074;2023-05-14T07:19:28;4.53;;;4.13;;
2840;SDS011;53423;49.224;12.074;2023-05-14T07:21:56;4.30;;;4.00;;
2840;SDS011;53423;49.224;12.074;2023-05-14T07:24:26;5.13;;;4.63;;
2840;SDS011;53423;49.224;12.074;2023-05-14T07:26:53;4.95;;;4.55;;
2840;SDS011;53423;49.224;12.074;2023-05-14T07:29:22;4.30;;;4.00;;
2840;SDS011;53423;49.224;12.074;2023-05-14T07:31:51;4.93;;;4.53;;
2840;SDS011;53423;49.224;12.074;2023-05-14T07:34:19;5.13;;;4.77;;
2840;SDS011;53423;49.224;12.074;2023-05-14T07:36:46;4.67;;;4.27;;
2840;SDS011;53423;49.224;12.074;2023-05-14T07:39:14;4.90;;;4.50;;
2840;SDS011;53423;49.224;12.074;2023-05-14T07:41:44;5.10;;;4.70;;
2840;SDS011;53423;49.224;12.074;2023-05-14T07:44:11;4.97;;;4.60;;
2840;SDS011;53423;49.224;12.074;2023-05-14T07:46:39;5.20;;;4.73;;
2840;SDS011;53423;49.224;12.074;2023-05-14T07:49:08;4.83;;;4.33;;
2840;SDS011;53423;49.224;12.074;2023-05-14T07:51:36;5.00;;;4.60;;
2840;SDS011;53423;49.224;12.074;2023-05-14T07:54:04;4.63;;;4.23;;
2840;SDS011;53423;49.224;12.074;2023-05-14T07:56:32;4.87;;;4.37;;
2840;SDS011;53423;49.224;12.074;2023-05-14T07:59:01;4.33;;;4.03;;
2840;SDS011;53423;49.224;12.074;2023-05-14T08:01:29;5.93;;;4.80;;
2840;SDS011;53423;49.224;12.074;2023-05-14T08:03:57;4.40;;;4.10;;
2840;SDS011;53423;49.224;12.074;2023-05-14T08:06:25;4.00;;;3.70;;
2840;SDS011;53423;49.224;12.074;2023-05-14T08:08:54;3.90;;;3.50;;
2840;SDS011;53423;49.224;12.074;2023-05-14T08:11:22;3.67;;;3.37;;
2840;SDS011;53423;49.224;12.074;2023-05-14T08:13:51;4.03;;;3.70;;
2840;SDS011;53423;49.224;12.074;2023-05-14T08:16:20;4.00;;;3.60;;
2840;SDS011;53423;49.224;12.074;2023-05-14T08:18:48;4.03;;;3.63;;
2840;SDS011;53423;49.224;12.074;2023-05-14T08:21:16;4.30;;;3.90;;
2840;SDS011;53423;49.224;12.074;2023-05-14T08:23:44;3.90;;;3.60;;
2840;SDS011;53423;49.224;12.074;2023-05-14T08:26:12;4.13;;;3.83;;
2840;SDS011;53423;49.224;12.074;2023-05-14T08:28:40;4.00;;;3.70;;
2840;SDS011;53423;49.224;12.074;2023-05-14T08:31:08;3.70;;;3.37;;
2840;SDS011;53423;49.224;12.074;2023-05-14T08:33:37;3.90;;;3.60;;
2840;SDS011;53423;49.224;12.074;2023-05-14T08:36:05;2.90;;;2.70;;
2840;SDS011;53423;49.224;12.074;2023-05-14T08:38:34;2.90;;;2.70;;
2840;SDS011;53423;49.224;12.074;2023-05-14T08:41:01;2.33;;;2.23;;
2840;SDS011;53423;49.224;12.074;2023-05-14T08:43:35;2.60;;;2.40;;
2840;SDS011;53423;49.224;12.074;2023-05-14T08:46:10;2.87;;;2.67;;
2840;SDS011;53423;49.224;12.074;2023-05-14T08:48:42;3.75;;;3.00;;
2840;SDS011;53423;49.224;12.074;2023-05-14T08:51:14;4.00;;;3.10;;
2840;SDS011;53423;49.224;12.074;2023-05-14T08:53:42;2.92;;;2.72;;
2840;SDS011;53423;49.224;12.074;2023-05-14T08:56:10;2.97;;;2.78;;
2840;SDS011;53423;49.224;12.074;2023-05-14T08:58:41;3.00;;;2.80;;
2840;SDS011;53423;49.224;12.074;2023-05-14T09:01:09;3.30;;;3.00;;
2840;SDS011;53423;49.224;12.074;2023-05-14T09:03:37;3.25;;;2.95;;
2840;SDS011;53423;49.224;12.074;2023-05-14T09:06:07;3.00;;;2.80;;
2840;SDS011;53423;49.224;12.074;2023-05-14T09:08:35;3.15;;;2.95;;
2840;SDS011;53423;49.224;12.074;2023-05-14T09:11:04;3.70;;;3.40;;
2840;SDS011;53423;49.224;12.074;2023-05-14T09:13:32;3.55;;;3.25;;
2840;SDS011;53423;49.224;12.074;2023-05-14T09:16:03;3.90;;;3.60;;
2840;SDS011;53423;49.224;12.074;2023-05-14T09:18:31;3.60;;;3.30;;
2840;SDS011;53423;49.224;12.074;2023-05-14T09:20:59;3.87;;;3.57;;
2840;SDS011;53423;49.224;12.074;2023-05-14T09:23:31;3.80;;;3.33;;
2840;SDS011;53423;49.224;12.074;2023-05-14T09:26:02;3.60;;;3.30;;
2840;SDS011;53423;49.224;12.074;2023-05-14T09:28:31;3.43;;;3.23;;
2840;SDS011;53423;49.224;12.074;2023-05-14T09:30:58;4.40;;;4.00;;
2840;SDS011;53423;49.224;12.074;2023-05-14T09:33:26;4.40;;;4.00;;
2840;SDS011;53423;49.224;12.074;2023-05-14T09:35:57;3.83;;;3.53;;
2840;SDS011;53423;49.224;12.074;2023-05-14T09:38:28;3.60;;;3.30;;
2840;SDS011;53423;49.224;12.074;2023-05-14T09:40:58;3.90;;;3.60;;
2840;SDS011;53423;49.224;12.074;2023-05-14T09:43:27;3.57;;;3.30;;
2840;SDS011;53423;49.224;12.074;2023-05-14T09:45:55;4.17;;;3.77;;
2840;SDS011;53423;49.224;12.074;2023-05-14T09:48:23;3.80;;;3.50;;
2840;SDS011;53423;49.224;12.074;2023-05-14T09:50:51;4.17;;;3.83;;
2840;SDS011;53423;49.224;12.074;2023-05-14T09:53:19;3.77;;;3.43;;
2840;SDS011;53423;49.224;12.074;2023-05-14T09:55:49;3.67;;;3.30;;
2840;SDS011;53423;49.224;12.074;2023-05-14T09:58:17;3.73;;;3.30;;
2840;SDS011;53423;49.224;12.074;2023-05-14T10:00:45;4.37;;;3.97;;
2840;SDS011;53423;49.224;12.074;2023-05-14T10:03:13;4.17;;;3.87;;
2840;SDS011;53423;49.224;12.074;2023-05-14T10:05:45;4.37;;;4.00;;
2840;SDS011;53423;49.224;12.074;2023-05-14T10:08:18;5.40;;;5.00;;
2840;SDS011;53423;49.224;12.074;2023-05-14T10:10:50;4.07;;;3.77;;
2840;SDS011;53423;49.224;12.074;2023-05-14T10:13:19;4.00;;;3.60;;
2840;SDS011;53423;49.224;12.074;2023-05-14T10:15:51;4.37;;;3.50;;
2840;SDS011;53423;49.224;12.074;2023-05-14T10:18:24;4.03;;;3.73;;
2840;SDS011;53423;49.224;12.074;2023-05-14T10:20:59;4.23;;;3.87;;
2840;SDS011;53423;49.224;12.074;2023-05-14T10:23:31;3.83;;;3.43;;
2840;SDS011;53423;49.224;12.074;2023-05-14T10:26:04;4.00;;;3.60;;
2840;SDS011;53423;49.224;12.074;2023-05-14T10:28:33;3.40;;;3.10;;
2840;SDS011;53423;49.224;12.074;2023-05-14T10:31:01;3.93;;;3.63;;
2840;SDS011;53423;49.224;12.074;2023-05-14T10:33:29;4.70;;;4.30;;
2840;SDS011;53423;49.224;12.074;2023-05-14T10:36:12;3.93;;;3.63;;
2840;SDS011;53423;49.224;12.074;2023-05-14T10:38:40;4.13;;;3.73;;
2840;SDS011;53423;49.224;12.074;2023-05-14T10:41:10;3.37;;;3.07;;
2840;SDS011;53423;49.224;12.074;2023-05-14T10:43:40;3.77;;;3.20;;
2840;SDS011;53423;49.224;12.074;2023-05-14T10:46:10;3.20;;;3.00;;
2840;SDS011;53423;49.224;12.074;2023-05-14T10:48:41;3.70;;;3.40;;
2840;SDS011;53423;49.224;12.074;2023-05-14T10:51:09;3.10;;;2.90;;
2840;SDS011;53423;49.224;12.074;2023-05-14T10:53:40;3.47;;;3.20;;
2840;SDS011;53423;49.224;12.074;2023-05-14T10:56:11;3.08;;;2.88;;
2840;SDS011;53423;49.224;12.074;2023-05-14T10:58:41;4.45;;;3.22;;
2840;SDS011;53423;49.224;12.074;2023-05-14T11:01:10;3.60;;;3.30;;
2840;SDS011;53423;49.224;12.074;2023-05-14T11:03:39;3.25;;;2.97;;
2840;SDS011;53423;49.224;12.074;2023-05-14T11:06:09;3.17;;;2.88;;
2840;SDS011;53423;49.224;12.074;2023-05-14T11:08:38;2.95;;;2.75;;
2840;SDS011;53423;49.224;12.074;2023-05-14T11:11:07;3.30;;;3.08;;
2840;SDS011;53423;49.224;12.074;2023-05-14T11:13:37;2.75;;;2.55;;
2840;SDS011;53423;49.224;12.074;2023-05-14T11:16:05;2.88;;;2.65;;
2840;SDS011;53423;49.224;12.074;2023-05-14T11:18:52;3.03;;;2.83;;
2840;SDS011;53423;49.224;12.074;2023-05-14T11:21:27;2.70;;;2.50;;
2840;SDS011;53423;49.224;12.074;2023-05-14T11:23:55;2.45;;;2.28;;
2840;SDS011;53423;49.224;12.074;2023-05-14T11:26:23;2.58;;;2.40;;
2840;SDS011;53423;49.224;12.074;2023-05-14T11:28:52;3.35;;;2.60;;
2840;SDS011;53423;49.224;12.074;2023-05-14T11:31:20;2.80;;;2.60;;
2840;SDS011;53423;49.224;12.074;2023-05-14T11:33:50;3.22;;;3.03;;
2840;SDS011;53423;49.224;12.074;2023-05-14T11:36:19;3.22;;;3.03;;
2840;SDS011;53423;49.224;12.074;2023-05-14T11:38:47;3.40;;;3.20;;
2840;SDS011;53423;49.224;12.074;2023-05-14T11:41:16;3.30;;;3.10;;
2840;SDS011;53423;49.224;12.074;2023-05-14T11:43:47;3.17;;;2.88;;
2840;SDS011;53423;49.224;12.074;2023-05-14T11:46:16;3.13;;;2.83;;
2840;SDS011;53423;49.224;12.074;2023-05-14T11:48:45;3.40;;;3.10;;
2840;SDS011;53423;49.224;12.074;2023-05-14T11:51:13;3.38;;;3.08;;
2840;SDS011;53423;49.224;12.074;2023-05-14T11:53:41;3.40;;;3.20;;
2840;SDS011;53423;49.224;12.074;2023-05-14T11:56:09;3.75;;;3.50;;
2840;SDS011;53423;49.224;12.074;2023-05-14T11:58:37;4.07;;;3.78;;
2840;SDS011;53423;49.224;12.074;2023-05-14T12:01:05;3.88;;;3.47;;
2840;SDS011;53423;49.224;12.074;2023-05-14T12:03:34;3.63;;;3.43;;
2840;SDS011;53423;49.224;12.074;2023-05-14T12:06:05;3.60;;;3.40;;
2840;SDS011;53423;49.224;12.074;2023-05-14T12:08:33;3.80;;;3.50;;
2840;SDS011;53423;49.224;12.074;2023-05-14T12:11:01;3.90;;;3.60;;
2840;SDS011;53423;49.224;12.074;2023-05-14T12:13:30;4.30;;;4.00;;
2840;SDS011;53423;49.224;12.074;2023-05-14T12:15:59;3.90;;;3.60;;
2840;SDS011;53423;49.224;12.074;2023-05-14T12:18:28;3.27;;;3.03;;
2840;SDS011;53423;49.224;12.074;2023-05-14T12:21:04;3.67;;;3.40;;
2840;SDS011;53423;49.224;12.074;2023-05-14T12:23:34;3.87;;;3.57;;
2840;SDS011;53423;49.224;12.074;2023-05-14T12:26:05;3.63;;;3.43;;
2840;SDS011;53423;49.224;12.074;2023-05-14T12:28:34;5.30;;;3.70;;
2840;SDS011;53423;49.224;12.074;2023-05-14T12:31:11;4.70;;;4.20;;
2840;SDS011;53423;49.224;12.074;2023-05-14T12:33:41;3.90;;;3.60;;
2840;SDS011;53423;49.224;12.074;2023-05-14T12:36:11;3.60;;;3.30;;
2840;SDS011;53423;49.224;12.074;2023-05-14T12:38:45;4.57;;;3.93;;
2840;SDS011;53423;49.224;12.074;2023-05-14T12:41:13;3.97;;;3.63;;
2840;SDS011;53423;49.224;12.074;2023-05-14T12:43:41;3.70;;;3.40;;
2840;SDS011;53423;49.224;12.074;2023-05-14T12:46:10;3.80;;;3.50;;
2840;SDS011;53423;49.224;12.074;2023-05-14T12:48:38;3.93;;;3.63;;
2840;SDS011;53423;49.224;12.074;2023-05-14T12:51:10;5.57;;;3.67;;
2840;SDS011;53423;49.224;12.074;2023-05-14T12:53:39;4.38;;;4.00;;
2840;SDS011;53423;49.224;12.074;2023-05-14T12:56:07;4.10;;;3.80;;
2840;SDS011;53423;49.224;12.074;2023-05-14T12:58:35;4.40;;;4.00;;
2840;SDS011;53423;49.224;12.074;2023-05-14T13:01:03;4.93;;;4.53;;
2840;SDS011;53423;49.224;12.074;2023-05-14T13:03:31;4.53;;;4.23;;
2840;SDS011;53423;49.224;12.074;2023-05-14T13:05:59;4.20;;;3.90;;
2840;SDS011;53423;49.224;12.074;2023-05-14T13:08:29;4.47;;;4.07;;
2840;SDS011;53423;49.224;12.074;2023-05-14T13:10:57;4.37;;;4.07;;
2840;SDS011;53423;49.224;12.074;2023-05-14T13:13:24;4.50;;;4.10;;
2840;SDS011;53423;49.224;12.074;2023-05-14T13:15:52;4.40;;;4.07;;
2840;SDS011;53423;49.224;12.074;2023-05-14T13:18:20;4.73;;;4.40;;
2840;SDS011;53423;49.224;12.074;2023-05-14T13:20:48;4.30;;;4.00;;
2840;SDS011;53423;49.224;12.074;2023-05-14T13:23:17;4.33;;;4.03;;
2840;SDS011;53423;49.224;12.074;2023-05-14T13:25:46;4.57;;;4.23;;
2840;SDS011;53423;49.224;12.074;2023-05-14T13:28:15;4.77;;;4.37;;
2840;SDS011;53423;49.224;12.074;2023-05-14T13:30:44;5.67;;;4.57;;
2840;SDS011;53423;49.224;12.074;2023-05-14T13:33:30;4.90;;;4.50;;
2840;SDS011;53423;49.224;12.074;2023-05-14T13:35:58;5.30;;;4.80;;
2840;SDS011;53423;49.224;12.074;2023-05-14T13:38:26;5.20;;;4.70;;
2840;SDS011;53423;49.224;12.074;2023-05-14T13:40:56;5.17;;;4.63;;
2840;SDS011;53423;49.224;12.074;2023-05-14T13:43:28;4.87;;;4.57;;
2840;SDS011;53423;49.224;12.074;2023-05-14T13:45:56;4.67;;;4.37;;
2840;SDS011;53423;49.224;12.074;2023-05-14T13:48:25;4.93;;;4.53;;
2840;SDS011;53423;49.224;12.074;2023-05-14T13:50:53;4.97;;;4.50;;
2840;SDS011;53423;49.224;12.074;2023-05-14T13:53:22;4.70;;;4.30;;
2840;SDS011;53423;49.224;12.074;2023-05-14T13:55:50;4.47;;;4.03;;
2840;SDS011;53423;49.224;12.074;2023-05-14T13:58:23;4.00;;;3.70;;
2840;SDS011;53423;49.224;12.074;2023-05-14T14:00:51;5.73;;;4.70;;
2840;SDS011;53423;49.224;12.074;2023-05-14T14:03:19;4.83;;;4.43;;
2840;SDS011;53423;49.224;12.074;2023-05-14T14:05:47;4.50;;;4.20;;
2840;SDS011;53423;49.224;12.074;2023-05-14T14:08:16;5.00;;;4.60;;
2840;SDS011;53423;49.224;12.074;2023-05-14T14:10:50;4.17;;;3.87;;
2840;SDS011;53423;49.224;12.074;2023-05-14T14:13:20;4.63;;;4.23;;
2840;SDS011;53423;49.224;12.074;2023-05-14T14:15:50;4.87;;;4.43;;
2840;SDS011;53423;49.224;12.074;2023-05-14T14:18:18;4.23;;;3.93;;
2840;SDS011;53423;49.224;12.074;2023-05-14T14:20:46;5.33;;;4.83;;
2840;SDS011;53423;49.224;12.074;2023-05-14T14:23:14;5.50;;;4.60;;
2840;SDS011;53423;49.224;12.074;2023-05-14T14:25:42;5.00;;;4.40;;
2840;SDS011;53423;49.224;12.074;2023-05-14T14:28:10;5.17;;;4.77;;
2840;SDS011;53423;49.224;12.074;2023-05-14T14:30:37;5.47;;;4.97;;
2840;SDS011;53423;49.224;12.074;2023-05-14T14:33:07;5.20;;;4.80;;
2840;SDS011;53423;49.224;12.074;2023-05-14T14:35:34;4.37;;;3.93;;
2840;SDS011;53423;49.224;12.074;2023-05-14T14:38:03;4.60;;;4.20;;
2840;SDS011;53423;49.224;12.074;2023-05-14T14:40:31;4.77;;;4.40;;
2840;SDS011;53423;49.224;12.074;2023-05-14T14:42:59;4.83;;;4.53;;
2840;SDS011;53423;49.224;12.074;2023-05-14T14:45:28;5.27;;;4.77;;
2840;SDS011;53423;49.224;12.074;2023-05-14T14:50:50;6.03;;;5.53;;
2840;SDS011;53423;49.224;12.074;2023-05-14T14:53:18;6.00;;;5.50;;
2840;SDS011;53423;49.224;12.074;2023-05-14T14:55:46;5.67;;;5.20;;
2840;SDS011;53423;49.224;12.074;2023-05-14T14:58:15;5.90;;;5.50;;
2840;SDS011;53423;49.224;12.074;2023-05-14T15:00:44;5.80;;;5.30;;